Port Clinton, Ohio
Current Conditions -  °F | °C
As of 11:33 PM on Thursday 20 Nov 2014 (Local Time) from KPCW Reporting Station
Overcast Overcast  
Wind Chill: 14°   Ceiling: 5000
Heat Index: 23°   Visibility: 10mi
Dew Point: 14°   Wind: 8mph
Humidity: 68%   Direction: 230°SW
Pressure: 30.18"   Gusts: NA
Location:  41.51°N, 82.94°W
Report Text: KPCW 210433Z AUTO 23007KT 10SM OVC050 M05/M10 A3018 RMK AO2 $
Loading
Personal Weather Stations






























Interactive Weather Map New forecast layout! Learn more

10-Day Weather Forecast

Advertisements
Track Severe Weather on mobile